sensor_id;sensor_type;location;lat;lon;timestamp;noise_LAeq;noise_LA_min;noise_LA_max;noise_LA01;noise_LA95
72686;Laerm;61365;52.162;4.500;2023-08-01T00:00:05;41.69;32.27;52.60;;
72686;Laerm;61365;52.162;4.500;2023-08-01T00:02:33;41.71;32.11;50.89;;
72686;Laerm;61365;52.162;4.500;2023-08-01T00:04:59;41.65;32.11;52.10;;
72686;Laerm;61365;52.162;4.500;2023-08-01T00:07:28;41.80;31.73;53.41;;
72686;Laerm;61365;52.162;4.500;2023-08-01T00:09:55;41.83;32.14;51.39;;
72686;Laerm;61365;52.162;4.500;2023-08-01T00:12:21;41.81;31.48;52.09;;
72686;Laerm;61365;52.162;4.500;2023-08-01T00:14:47;41.82;31.81;52.00;;
72686;Laerm;61365;52.162;4.500;2023-08-01T00:17:13;41.84;31.24;52.41;;
72686;Laerm;61365;52.162;4.500;2023-08-01T00:19:40;41.85;31.33;53.99;;
72686;Laerm;61365;52.162;4.500;2023-08-01T00:22:06;41.75;31.94;53.36;;
72686;Laerm;61365;52.162;4.500;2023-08-01T00:24:32;41.85;31.56;51.85;;
72686;Laerm;61365;52.162;4.500;2023-08-01T00:26:58;41.89;31.82;53.76;;
72686;Laerm;61365;52.162;4.500;2023-08-01T00:29:24;41.88;31.78;52.46;;
72686;Laerm;61365;52.162;4.500;2023-08-01T00:31:50;41.89;32.85;51.43;;
72686;Laerm;61365;52.162;4.500;2023-08-01T00:34:16;41.92;31.78;53.23;;
72686;Laerm;61365;52.162;4.500;2023-08-01T00:36:42;41.94;31.94;53.80;;
72686;Laerm;61365;52.162;4.500;2023-08-01T00:39:08;41.91;32.02;52.75;;
72686;Laerm;61365;52.162;4.500;2023-08-01T00:41:35;41.83;31.83;52.50;;
72686;Laerm;61365;52.162;4.500;2023-08-01T00:44:01;41.89;32.14;52.61;;
72686;Laerm;61365;52.162;4.500;2023-08-01T00:46:27;41.80;31.68;53.46;;
72686;Laerm;61365;52.162;4.500;2023-08-01T00:48:54;41.85;32.99;52.74;;
72686;Laerm;61365;52.162;4.500;2023-08-01T00:51:24;41.88;31.46;52.14;;
72686;Laerm;61365;52.162;4.500;2023-08-01T00:53:51;41.89;31.53;53.73;;
72686;Laerm;61365;52.162;4.500;2023-08-01T00:56:17;41.95;31.60;53.67;;
72686;Laerm;61365;52.162;4.500;2023-08-01T00:58:44;41.89;32.40;54.21;;
72686;Laerm;61365;52.162;4.500;2023-08-01T01:01:10;41.89;31.88;52.50;;
72686;Laerm;61365;52.162;4.500;2023-08-01T01:03:36;41.98;31.77;54.78;;
72686;Laerm;61365;52.162;4.500;2023-08-01T01:06:16;41.89;31.81;52.83;;
72686;Laerm;61365;52.162;4.500;2023-08-01T01:08:45;41.86;31.30;53.24;;
72686;Laerm;61365;52.162;4.500;2023-08-01T01:11:11;41.92;31.75;54.03;;
72686;Laerm;61365;52.162;4.500;2023-08-01T01:13:37;41.83;31.37;53.74;;
72686;Laerm;61365;52.162;4.500;2023-08-01T01:16:04;41.82;31.90;51.91;;
72686;Laerm;61365;52.162;4.500;2023-08-01T01:18:30;41.94;32.11;53.13;;
72686;Laerm;61365;52.162;4.500;2023-08-01T01:20:56;41.79;31.81;52.95;;
72686;Laerm;61365;52.162;4.500;2023-08-01T01:23:22;41.80;32.29;52.45;;
72686;Laerm;61365;52.162;4.500;2023-08-01T01:25:51;41.77;31.57;51.96;;
72686;Laerm;61365;52.162;4.500;2023-08-01T01:28:18;41.84;32.01;52.47;;
72686;Laerm;61365;52.162;4.500;2023-08-01T01:30:45;41.90;32.42;51.92;;
72686;Laerm;61365;52.162;4.500;2023-08-01T01:33:12;41.88;32.27;54.19;;
72686;Laerm;61365;52.162;4.500;2023-08-01T01:35:38;41.88;32.35;52.29;;
72686;Laerm;61365;52.162;4.500;2023-08-01T01:38:04;41.90;31.30;53.49;;
72686;Laerm;61365;52.162;4.500;2023-08-01T01:40:31;41.83;32.47;50.59;;
72686;Laerm;61365;52.162;4.500;2023-08-01T01:42:58;41.97;31.15;52.22;;
72686;Laerm;61365;52.162;4.500;2023-08-01T01:45:25;41.91;31.81;52.76;;
72686;Laerm;61365;52.162;4.500;2023-08-01T01:47:51;41.78;31.58;53.16;;
72686;Laerm;61365;52.162;4.500;2023-08-01T01:50:17;41.82;31.93;54.12;;
72686;Laerm;61365;52.162;4.500;2023-08-01T01:52:44;41.74;31.76;51.64;;
72686;Laerm;61365;52.162;4.500;2023-08-01T01:55:11;41.75;31.53;52.22;;
72686;Laerm;61365;52.162;4.500;2023-08-01T01:57:37;41.88;31.50;51.64;;
72686;Laerm;61365;52.162;4.500;2023-08-01T02:00:06;41.85;31.74;52.35;;
72686;Laerm;61365;52.162;4.500;2023-08-01T02:02:36;41.96;32.18;52.61;;
72686;Laerm;61365;52.162;4.500;2023-08-01T02:05:02;41.95;31.32;53.27;;
72686;Laerm;61365;52.162;4.500;2023-08-01T02:07:31;41.94;32.66;52.88;;
72686;Laerm;61365;52.162;4.500;2023-08-01T02:10:00;41.92;31.64;53.22;;
72686;Laerm;61365;52.162;4.500;2023-08-01T02:12:27;41.96;31.24;54.07;;
72686;Laerm;61365;52.162;4.500;2023-08-01T02:14:53;41.92;31.44;54.03;;
72686;Laerm;61365;52.162;4.500;2023-08-01T02:17:19;41.90;31.73;56.72;;
72686;Laerm;61365;52.162;4.500;2023-08-01T02:19:45;41.87;31.75;51.76;;
72686;Laerm;61365;52.162;4.500;2023-08-01T02:22:11;41.92;31.72;54.66;;
72686;Laerm;61365;52.162;4.500;2023-08-01T02:24:37;41.94;31.96;54.91;;
72686;Laerm;61365;52.162;4.500;2023-08-01T02:27:04;41.95;32.83;52.90;;
72686;Laerm;61365;52.162;4.500;2023-08-01T02:29:30;41.79;31.63;54.34;;
72686;Laerm;61365;52.162;4.500;2023-08-01T02:31:56;41.87;31.43;53.90;;
72686;Laerm;61365;52.162;4.500;2023-08-01T02:34:22;41.87;31.67;51.30;;
72686;Laerm;61365;52.162;4.500;2023-08-01T02:36:48;41.87;32.44;53.10;;
72686;Laerm;61365;52.162;4.500;2023-08-01T02:39:14;41.88;31.49;53.97;;
72686;Laerm;61365;52.162;4.500;2023-08-01T02:41:40;41.92;31.50;51.84;;
72686;Laerm;61365;52.162;4.500;2023-08-01T02:44:06;41.85;31.72;53.84;;
72686;Laerm;61365;52.162;4.500;2023-08-01T02:46:32;41.88;32.55;52.12;;
72686;Laerm;61365;52.162;4.500;2023-08-01T02:48:58;41.87;31.48;52.91;;
72686;Laerm;61365;52.162;4.500;2023-08-01T02:51:24;41.80;32.14;51.74;;
72686;Laerm;61365;52.162;4.500;2023-08-01T02:53:50;41.91;32.07;52.96;;
72686;Laerm;61365;52.162;4.500;2023-08-01T02:56:17;41.80;31.08;53.46;;
72686;Laerm;61365;52.162;4.500;2023-08-01T02:58:43;41.82;31.40;52.92;;
72686;Laerm;61365;52.162;4.500;2023-08-01T03:01:09;41.86;31.90;51.58;;
72686;Laerm;61365;52.162;4.500;2023-08-01T03:03:36;41.90;31.33;53.17;;
72686;Laerm;61365;52.162;4.500;2023-08-01T03:06:03;41.78;31.51;52.07;;
72686;Laerm;61365;52.162;4.500;2023-08-01T03:08:29;41.89;31.57;54.10;;
72686;Laerm;61365;52.162;4.500;2023-08-01T03:10:55;41.85;31.77;53.01;;
72686;Laerm;61365;52.162;4.500;2023-08-01T03:13:21;41.84;31.84;53.44;;
72686;Laerm;61365;52.162;4.500;2023-08-01T03:15:48;41.96;32.64;53.74;;
72686;Laerm;61365;52.162;4.500;2023-08-01T03:18:14;41.86;31.80;54.17;;
72686;Laerm;61365;52.162;4.500;2023-08-01T03:20:40;41.89;32.31;53.66;;
72686;Laerm;61365;52.162;4.500;2023-08-01T03:23:06;41.82;32.42;52.33;;
72686;Laerm;61365;52.162;4.500;2023-08-01T03:25:32;41.84;31.78;52.58;;
72686;Laerm;61365;52.162;4.500;2023-08-01T03:27:58;41.86;31.87;52.16;;
72686;Laerm;61365;52.162;4.500;2023-08-01T03:30:25;42.01;32.64;53.91;;
72686;Laerm;61365;52.162;4.500;2023-08-01T03:32:51;41.97;31.37;52.71;;
72686;Laerm;61365;52.162;4.500;2023-08-01T03:35:17;41.90;31.31;52.57;;
72686;Laerm;61365;52.162;4.500;2023-08-01T03:37:43;41.87;32.14;52.51;;
72686;Laerm;61365;52.162;4.500;2023-08-01T03:40:10;41.91;31.60;52.22;;
72686;Laerm;61365;52.162;4.500;2023-08-01T03:42:39;41.84;31.29;52.39;;
72686;Laerm;61365;52.162;4.500;2023-08-01T03:45:07;41.90;31.89;52.95;;
72686;Laerm;61365;52.162;4.500;2023-08-01T03:47:33;41.89;32.52;52.03;;
72686;Laerm;61365;52.162;4.500;2023-08-01T03:49:59;41.90;31.47;52.81;;
72686;Laerm;61365;52.162;4.500;2023-08-01T03:52:25;41.87;31.38;51.01;;
72686;Laerm;61365;52.162;4.500;2023-08-01T03:54:54;41.81;31.40;52.37;;
72686;Laerm;61365;52.162;4.500;2023-08-01T03:57:21;41.91;32.18;53.06;;
72686;Laerm;61365;52.162;4.500;2023-08-01T03:59:47;41.81;31.59;51.83;;
72686;Laerm;61365;52.162;4.500;2023-08-01T04:02:13;41.84;31.59;52.93;;
72686;Laerm;61365;52.162;4.500;2023-08-01T04:04:39;41.99;31.67;53.10;;
72686;Laerm;61365;52.162;4.500;2023-08-01T04:07:05;41.85;31.91;52.54;;
72686;Laerm;61365;52.162;4.500;2023-08-01T04:09:31;41.96;32.71;53.31;;
72686;Laerm;61365;52.162;4.500;2023-08-01T04:11:57;41.87;32.21;52.36;;
72686;Laerm;61365;52.162;4.500;2023-08-01T04:14:23;41.82;32.18;53.30;;
72686;Laerm;61365;52.162;4.500;2023-08-01T04:16:50;41.97;31.78;51.89;;
72686;Laerm;61365;52.162;4.500;2023-08-01T04:19:16;41.96;31.33;52.62;;
72686;Laerm;61365;52.162;4.500;2023-08-01T04:21:42;41.87;32.90;53.03;;
72686;Laerm;61365;52.162;4.500;2023-08-01T04:24:08;41.92;31.91;53.11;;
72686;Laerm;61365;52.162;4.500;2023-08-01T04:26:34;41.84;31.58;51.03;;
72686;Laerm;61365;52.162;4.500;2023-08-01T04:29:02;41.97;31.31;55.02;;
72686;Laerm;61365;52.162;4.500;2023-08-01T04:31:28;41.98;31.74;54.60;;
72686;Laerm;61365;52.162;4.500;2023-08-01T04:33:54;41.88;31.61;53.08;;
72686;Laerm;61365;52.162;4.500;2023-08-01T04:36:20;41.83;32.09;51.90;;
72686;Laerm;61365;52.162;4.500;2023-08-01T04:38:47;41.84;31.61;52.52;;
72686;Laerm;61365;52.162;4.500;2023-08-01T04:41:13;41.90;31.81;52.59;;
72686;Laerm;61365;52.162;4.500;2023-08-01T04:43:39;41.91;31.50;52.08;;
72686;Laerm;61365;52.162;4.500;2023-08-01T04:46:05;41.88;31.48;51.40;;
72686;Laerm;61365;52.162;4.500;2023-08-01T04:48:32;41.80;31.39;51.64;;
72686;Laerm;61365;52.162;4.500;2023-08-01T04:50:58;41.85;31.45;52.64;;
72686;Laerm;61365;52.162;4.500;2023-08-01T04:53:24;41.84;31.58;52.58;;
72686;Laerm;61365;52.162;4.500;2023-08-01T04:55:50;41.91;31.07;53.73;;
72686;Laerm;61365;52.162;4.500;2023-08-01T04:58:16;41.88;31.82;53.17;;
72686;Laerm;61365;52.162;4.500;2023-08-01T05:00:43;41.88;31.87;51.52;;
72686;Laerm;61365;52.162;4.500;2023-08-01T05:03:09;41.98;31.54;54.04;;
72686;Laerm;61365;52.162;4.500;2023-08-01T05:05:35;41.92;31.36;52.83;;
72686;Laerm;61365;52.162;4.500;2023-08-01T05:08:01;41.85;31.72;53.65;;
72686;Laerm;61365;52.162;4.500;2023-08-01T05:10:27;41.86;31.64;52.53;;
72686;Laerm;61365;52.162;4.500;2023-08-01T05:12:53;41.78;31.27;55.87;;
72686;Laerm;61365;52.162;4.500;2023-08-01T05:15:19;41.92;32.15;52.75;;
72686;Laerm;61365;52.162;4.500;2023-08-01T05:17:45;41.90;31.58;52.80;;
72686;Laerm;61365;52.162;4.500;2023-08-01T05:20:11;41.84;31.94;51.75;;
72686;Laerm;61365;52.162;4.500;2023-08-01T05:22:37;41.84;31.79;54.00;;
72686;Laerm;61365;52.162;4.500;2023-08-01T05:25:04;41.85;31.53;52.33;;
72686;Laerm;61365;52.162;4.500;2023-08-01T05:27:30;41.89;31.63;51.99;;
72686;Laerm;61365;52.162;4.500;2023-08-01T05:29:57;41.72;31.68;50.82;;
72686;Laerm;61365;52.162;4.500;2023-08-01T05:32:23;41.76;31.73;51.62;;
72686;Laerm;61365;52.162;4.500;2023-08-01T05:34:49;41.55;31.85;52.92;;
72686;Laerm;61365;52.162;4.500;2023-08-01T05:37:15;41.74;31.46;55.48;;
72686;Laerm;61365;52.162;4.500;2023-08-01T05:39:41;41.73;31.40;53.76;;
72686;Laerm;61365;52.162;4.500;2023-08-01T05:42:07;41.62;31.16;52.46;;
72686;Laerm;61365;52.162;4.500;2023-08-01T05:44:36;41.57;31.57;50.85;;
72686;Laerm;61365;52.162;4.500;2023-08-01T05:47:02;41.82;31.26;50.96;;
72686;Laerm;61365;52.162;4.500;2023-08-01T05:49:29;41.86;31.84;53.40;;
72686;Laerm;61365;52.162;4.500;2023-08-01T05:51:57;41.69;31.58;52.05;;
72686;Laerm;61365;52.162;4.500;2023-08-01T05:54:23;41.66;31.57;51.41;;
72686;Laerm;61365;52.162;4.500;2023-08-01T05:56:49;41.62;31.60;52.14;;
72686;Laerm;61365;52.162;4.500;2023-08-01T05:59:16;41.78;31.72;50.30;;
72686;Laerm;61365;52.162;4.500;2023-08-01T06:01:42;41.70;31.56;49.78;;
72686;Laerm;61365;52.162;4.500;2023-08-01T06:04:09;41.61;31.33;51.77;;
72686;Laerm;61365;52.162;4.500;2023-08-01T06:06:35;41.60;31.34;51.20;;
72686;Laerm;61365;52.162;4.500;2023-08-01T06:09:01;41.69;31.31;50.18;;
72686;Laerm;61365;52.162;4.500;2023-08-01T06:11:28;41.65;31.44;49.47;;
72686;Laerm;61365;52.162;4.500;2023-08-01T06:13:54;41.66;31.48;52.25;;
72686;Laerm;61365;52.162;4.500;2023-08-01T06:16:20;41.66;31.48;51.81;;
72686;Laerm;61365;52.162;4.500;2023-08-01T06:18:48;41.53;31.79;49.26;;
72686;Laerm;61365;52.162;4.500;2023-08-01T06:21:14;41.69;31.27;52.52;;
72686;Laerm;61365;52.162;4.500;2023-08-01T06:23:40;41.46;31.19;50.84;;
72686;Laerm;61365;52.162;4.500;2023-08-01T06:26:06;41.63;32.34;52.72;;
72686;Laerm;61365;52.162;4.500;2023-08-01T06:28:36;41.61;31.62;51.57;;
72686;Laerm;61365;52.162;4.500;2023-08-01T06:31:02;41.63;31.51;51.08;;
72686;Laerm;61365;52.162;4.500;2023-08-01T06:33:28;41.55;31.66;50.62;;
72686;Laerm;61365;52.162;4.500;2023-08-01T06:35:54;41.61;31.37;50.36;;
72686;Laerm;61365;52.162;4.500;2023-08-01T06:38:21;41.64;31.42;51.98;;
72686;Laerm;61365;52.162;4.500;2023-08-01T06:40:47;41.22;31.45;51.55;;
72686;Laerm;61365;52.162;4.500;2023-08-01T06:43:13;41.21;31.59;52.17;;
72686;Laerm;61365;52.162;4.500;2023-08-01T06:45:39;41.21;31.66;50.02;;
72686;Laerm;61365;52.162;4.500;2023-08-01T06:48:05;41.58;31.44;52.09;;
72686;Laerm;61365;52.162;4.500;2023-08-01T06:50:31;41.52;31.22;49.41;;
72686;Laerm;61365;52.162;4.500;2023-08-01T06:52:57;41.60;31.51;51.50;;
72686;Laerm;61365;52.162;4.500;2023-08-01T06:55:23;41.45;31.47;49.48;;
72686;Laerm;61365;52.162;4.500;2023-08-01T06:57:49;41.64;31.53;53.28;;
72686;Laerm;61365;52.162;4.500;2023-08-01T07:00:16;41.51;31.46;49.86;;
72686;Laerm;61365;52.162;4.500;2023-08-01T07:02:42;41.71;31.49;52.14;;
72686;Laerm;61365;52.162;4.500;2023-08-01T07:05:08;41.31;31.29;51.12;;
72686;Laerm;61365;52.162;4.500;2023-08-01T07:07:34;41.03;31.06;51.54;;
72686;Laerm;61365;52.162;4.500;2023-08-01T07:10:00;41.05;31.30;49.70;;
72686;Laerm;61365;52.162;4.500;2023-08-01T07:12:27;41.08;32.03;50.23;;
72686;Laerm;61365;52.162;4.500;2023-08-01T07:14:53;41.03;31.59;49.78;;
72686;Laerm;61365;52.162;4.500;2023-08-01T07:17:19;40.89;31.25;51.81;;
72686;Laerm;61365;52.162;4.500;2023-08-01T07:19:45;41.00;31.57;51.68;;
72686;Laerm;61365;52.162;4.500;2023-08-01T07:22:11;40.99;31.46;50.71;;
72686;Laerm;61365;52.162;4.500;2023-08-01T07:24:37;40.95;31.82;49.59;;
72686;Laerm;61365;52.162;4.500;2023-08-01T07:27:04;41.06;32.00;49.39;;
72686;Laerm;61365;52.162;4.500;2023-08-01T07:29:30;40.88;31.50;48.57;;
72686;Laerm;61365;52.162;4.500;2023-08-01T07:31:56;41.14;31.19;51.12;;
72686;Laerm;61365;52.162;4.500;2023-08-01T07:34:22;40.97;31.54;51.90;;
72686;Laerm;61365;52.162;4.500;2023-08-01T07:36:48;40.92;31.19;50.41;;
72686;Laerm;61365;52.162;4.500;2023-08-01T07:39:15;40.76;31.35;50.56;;
72686;Laerm;61365;52.162;4.500;2023-08-01T07:41:42;40.89;31.73;51.13;;
72686;Laerm;61365;52.162;4.500;2023-08-01T07:44:08;40.81;31.47;49.74;;
72686;Laerm;61365;52.162;4.500;2023-08-01T07:46:34;40.95;32.33;49.93;;
72686;Laerm;61365;52.162;4.500;2023-08-01T07:49:09;40.81;31.72;50.33;;
72686;Laerm;61365;52.162;4.500;2023-08-01T07:51:43;40.80;31.64;50.94;;
72686;Laerm;61365;52.162;4.500;2023-08-01T07:54:10;41.01;31.51;49.96;;
72686;Laerm;61365;52.162;4.500;2023-08-01T07:56:36;41.03;31.34;50.48;;
72686;Laerm;61365;52.162;4.500;2023-08-01T07:59:02;41.07;31.63;49.88;;
72686;Laerm;61365;52.162;4.500;2023-08-01T08:01:28;41.08;31.46;50.82;;
72686;Laerm;61365;52.162;4.500;2023-08-01T08:03:54;40.95;31.54;49.27;;
72686;Laerm;61365;52.162;4.500;2023-08-01T08:06:20;41.06;31.40;51.23;;
72686;Laerm;61365;52.162;4.500;2023-08-01T08:08:47;40.98;31.74;50.67;;
72686;Laerm;61365;52.162;4.500;2023-08-01T08:11:13;41.13;31.56;49.89;;
72686;Laerm;61365;52.162;4.500;2023-08-01T08:13:39;41.00;31.68;48.69;;
72686;Laerm;61365;52.162;4.500;2023-08-01T08:16:05;41.25;31.39;51.94;;
72686;Laerm;61365;52.162;4.500;2023-08-01T08:18:31;41.26;31.51;51.13;;
72686;Laerm;61365;52.162;4.500;2023-08-01T08:20:58;41.31;31.43;49.03;;
72686;Laerm;61365;52.162;4.500;2023-08-01T08:23:24;41.44;31.77;50.82;;
72686;Laerm;61365;52.162;4.500;2023-08-01T08:25:50;41.38;31.72;49.73;;
72686;Laerm;61365;52.162;4.500;2023-08-01T08:28:28;41.55;31.41;49.86;;
72686;Laerm;61365;52.162;4.500;2023-08-01T08:30:55;41.67;31.71;51.97;;
72686;Laerm;61365;52.162;4.500;2023-08-01T08:33:21;41.56;31.64;51.45;;
72686;Laerm;61365;52.162;4.500;2023-08-01T08:35:48;41.56;31.70;52.27;;
72686;Laerm;61365;52.162;4.500;2023-08-01T08:38:14;41.57;31.12;50.74;;
72686;Laerm;61365;52.162;4.500;2023-08-01T08:40:46;41.55;31.32;50.96;;
72686;Laerm;61365;52.162;4.500;2023-08-01T08:43:15;41.67;31.19;51.57;;
72686;Laerm;61365;52.162;4.500;2023-08-01T08:45:43;41.49;31.50;51.44;;
72686;Laerm;61365;52.162;4.500;2023-08-01T08:48:13;41.57;31.08;51.65;;
72686;Laerm;61365;52.162;4.500;2023-08-01T08:50:45;41.48;31.01;51.97;;
72686;Laerm;61365;52.162;4.500;2023-08-01T08:53:11;41.39;31.21;51.32;;
72686;Laerm;61365;52.162;4.500;2023-08-01T08:55:41;41.52;31.38;50.05;;
72686;Laerm;61365;52.162;4.500;2023-08-01T08:58:08;41.25;31.39;50.59;;
72686;Laerm;61365;52.162;4.500;2023-08-01T09:00:37;41.22;31.14;50.90;;
72686;Laerm;61365;52.162;4.500;2023-08-01T09:03:04;41.09;31.46;51.66;;
72686;Laerm;61365;52.162;4.500;2023-08-01T09:05:34;40.91;31.49;50.28;;
72686;Laerm;61365;52.162;4.500;2023-08-01T09:08:07;41.06;31.72;52.13;;
72686;Laerm;61365;52.162;4.500;2023-08-01T09:10:35;41.00;30.88;50.33;;
72686;Laerm;61365;52.162;4.500;2023-08-01T09:13:02;41.08;31.73;50.65;;
72686;Laerm;61365;52.162;4.500;2023-08-01T09:15:29;41.09;31.47;48.71;;
72686;Laerm;61365;52.162;4.500;2023-08-01T09:17:55;41.08;31.44;49.46;;
72686;Laerm;61365;52.162;4.500;2023-08-01T09:20:27;41.03;31.38;51.45;;
72686;Laerm;61365;52.162;4.500;2023-08-01T09:22:53;41.12;31.43;51.95;;
72686;Laerm;61365;52.162;4.500;2023-08-01T09:25:30;41.01;31.08;50.89;;
72686;Laerm;61365;52.162;4.500;2023-08-01T09:27:57;41.05;31.52;49.93;;
72686;Laerm;61365;52.162;4.500;2023-08-01T09:30:23;41.03;31.83;50.15;;
72686;Laerm;61365;52.162;4.500;2023-08-01T09:32:53;41.05;31.24;49.61;;
72686;Laerm;61365;52.162;4.500;2023-08-01T09:35:19;41.06;31.31;52.59;;
72686;Laerm;61365;52.162;4.500;2023-08-01T09:37:45;40.90;31.59;52.42;;
72686;Laerm;61365;52.162;4.500;2023-08-01T09:40:13;40.79;31.31;50.10;;
72686;Laerm;61365;52.162;4.500;2023-08-01T09:42:44;40.86;32.35;52.72;;
72686;Laerm;61365;52.162;4.500;2023-08-01T09:45:15;40.75;31.60;48.92;;
72686;Laerm;61365;52.162;4.500;2023-08-01T09:47:42;40.82;31.02;52.63;;
72686;Laerm;61365;52.162;4.500;2023-08-01T09:50:10;40.94;31.36;52.21;;
72686;Laerm;61365;52.162;4.500;2023-08-01T09:52:40;40.80;31.25;49.32;;
72686;Laerm;61365;52.162;4.500;2023-08-01T09:55:07;40.76;31.28;50.67;;
72686;Laerm;61365;52.162;4.500;2023-08-01T09:57:37;40.76;31.33;48.61;;
72686;Laerm;61365;52.162;4.500;2023-08-01T10:00:04;40.76;31.48;50.40;;
72686;Laerm;61365;52.162;4.500;2023-08-01T10:02:32;40.70;31.77;50.25;;
72686;Laerm;61365;52.162;4.500;2023-08-01T10:05:00;40.83;31.05;50.37;;
72686;Laerm;61365;52.162;4.500;2023-08-01T10:07:29;40.76;31.24;50.72;;
72686;Laerm;61365;52.162;4.500;2023-08-01T10:09:58;40.70;31.79;51.49;;
72686;Laerm;61365;52.162;4.500;2023-08-01T10:12:26;40.78;31.48;50.54;;
72686;Laerm;61365;52.162;4.500;2023-08-01T10:14:53;40.76;31.37;49.96;;
72686;Laerm;61365;52.162;4.500;2023-08-01T10:17:21;40.76;30.88;51.14;;
72686;Laerm;61365;52.162;4.500;2023-08-01T10:19:49;40.79;31.32;55.43;;
72686;Laerm;61365;52.162;4.500;2023-08-01T10:22:18;40.82;30.96;50.50;;
72686;Laerm;61365;52.162;4.500;2023-08-01T10:24:45;40.72;31.02;51.84;;
72686;Laerm;61365;52.162;4.500;2023-08-01T10:27:14;40.73;31.34;50.16;;
72686;Laerm;61365;52.162;4.500;2023-08-01T10:29:41;40.76;31.31;50.50;;
72686;Laerm;61365;52.162;4.500;2023-08-01T10:32:09;40.72;30.97;51.11;;
72686;Laerm;61365;52.162;4.500;2023-08-01T10:34:36;40.71;31.10;50.21;;
72686;Laerm;61365;52.162;4.500;2023-08-01T10:37:02;40.78;31.46;51.29;;
72686;Laerm;61365;52.162;4.500;2023-08-01T10:39:28;40.82;31.15;51.72;;
72686;Laerm;61365;52.162;4.500;2023-08-01T10:42:03;40.80;31.10;50.66;;
72686;Laerm;61365;52.162;4.500;2023-08-01T10:44:31;40.62;30.86;49.13;;
72686;Laerm;61365;52.162;4.500;2023-08-01T10:47:01;40.79;31.17;51.23;;
72686;Laerm;61365;52.162;4.500;2023-08-01T10:49:36;40.84;31.00;50.79;;
72686;Laerm;61365;52.162;4.500;2023-08-01T10:52:08;40.93;31.47;51.83;;
72686;Laerm;61365;52.162;4.500;2023-08-01T10:54:41;41.02;31.12;50.64;;
72686;Laerm;61365;52.162;4.500;2023-08-01T10:57:07;40.89;31.51;50.93;;
72686;Laerm;61365;52.162;4.500;2023-08-01T10:59:34;40.97;31.07;51.36;;
72686;Laerm;61365;52.162;4.500;2023-08-01T11:02:00;40.81;30.89;51.37;;
72686;Laerm;61365;52.162;4.500;2023-08-01T11:04:27;40.79;30.90;50.52;;
72686;Laerm;61365;52.162;4.500;2023-08-01T11:06:54;40.64;30.36;50.67;;
72686;Laerm;61365;52.162;4.500;2023-08-01T11:09:26;40.83;31.14;52.22;;
72686;Laerm;61365;52.162;4.500;2023-08-01T11:11:57;40.77;31.32;49.62;;
72686;Laerm;61365;52.162;4.500;2023-08-01T11:14:28;40.90;31.27;49.91;;
72686;Laerm;61365;52.162;4.500;2023-08-01T11:16:55;41.11;31.30;50.89;;
72686;Laerm;61365;52.162;4.500;2023-08-01T11:19:29;40.99;31.93;50.94;;
72686;Laerm;61365;52.162;4.500;2023-08-01T11:21:57;40.98;31.52;51.05;;
72686;Laerm;61365;52.162;4.500;2023-08-01T11:24:25;40.98;31.66;50.69;;
72686;Laerm;61365;52.162;4.500;2023-08-01T11:26:53;40.94;31.35;51.17;;
72686;Laerm;61365;52.162;4.500;2023-08-01T11:29:20;41.03;31.45;50.71;;
72686;Laerm;61365;52.162;4.500;2023-08-01T11:31:58;40.86;31.66;49.00;;
72686;Laerm;61365;52.162;4.500;2023-08-01T11:34:24;40.90;31.28;52.82;;
72686;Laerm;61365;52.162;4.500;2023-08-01T11:36:51;40.90;31.49;51.34;;
72686;Laerm;61365;52.162;4.500;2023-08-01T11:39:17;40.99;31.15;52.01;;
72686;Laerm;61365;52.162;4.500;2023-08-01T11:41:44;40.76;31.14;49.87;;
72686;Laerm;61365;52.162;4.500;2023-08-01T11:44:10;40.80;31.13;53.72;;
72686;Laerm;61365;52.162;4.500;2023-08-01T11:46:38;40.75;31.59;49.09;;
72686;Laerm;61365;52.162;4.500;2023-08-01T11:49:08;40.83;32.40;49.84;;
72686;Laerm;61365;52.162;4.500;2023-08-01T11:51:41;40.71;31.25;50.65;;
72686;Laerm;61365;52.162;4.500;2023-08-01T11:54:09;40.93;31.43;49.49;;
72686;Laerm;61365;52.162;4.500;2023-08-01T11:56:38;40.94;31.16;50.62;;
72686;Laerm;61365;52.162;4.500;2023-08-01T11:59:16;41.05;31.09;51.10;;
72686;Laerm;61365;52.162;4.500;2023-08-01T12:01:44;41.07;31.62;50.31;;
72686;Laerm;61365;52.162;4.500;2023-08-01T12:04:11;40.90;31.26;49.70;;
72686;Laerm;61365;52.162;4.500;2023-08-01T12:06:37;40.99;31.73;52.57;;
72686;Laerm;61365;52.162;4.500;2023-08-01T12:09:12;41.04;31.59;50.59;;
72686;Laerm;61365;52.162;4.500;2023-08-01T12:11:40;41.11;32.01;50.28;;
72686;Laerm;61365;52.162;4.500;2023-08-01T12:14:12;41.09;31.04;51.55;;
72686;Laerm;61365;52.162;4.500;2023-08-01T12:16:42;40.95;31.44;55.64;;
72686;Laerm;61365;52.162;4.500;2023-08-01T12:19:10;40.91;31.42;50.70;;
72686;Laerm;61365;52.162;4.500;2023-08-01T12:21:37;40.93;31.48;51.70;;
72686;Laerm;61365;52.162;4.500;2023-08-01T12:24:03;40.87;31.59;50.71;;
72686;Laerm;61365;52.162;4.500;2023-08-01T12:26:29;40.86;31.37;51.05;;
72686;Laerm;61365;52.162;4.500;2023-08-01T12:28:55;40.85;30.89;57.11;;
72686;Laerm;61365;52.162;4.500;2023-08-01T12:31:22;40.94;31.81;51.62;;
72686;Laerm;61365;52.162;4.500;2023-08-01T12:33:48;40.78;31.88;51.01;;
72686;Laerm;61365;52.162;4.500;2023-08-01T12:36:15;40.94;31.59;50.32;;
72686;Laerm;61365;52.162;4.500;2023-08-01T12:38:42;41.00;31.97;51.01;;
72686;Laerm;61365;52.162;4.500;2023-08-01T12:41:08;41.03;31.79;50.38;;
72686;Laerm;61365;52.162;4.500;2023-08-01T12:43:34;41.03;31.85;52.52;;
72686;Laerm;61365;52.162;4.500;2023-08-01T12:46:01;41.05;31.43;50.69;;
72686;Laerm;61365;52.162;4.500;2023-08-01T12:48:27;40.93;31.41;52.52;;
72686;Laerm;61365;52.162;4.500;2023-08-01T12:50:54;41.02;31.50;51.09;;
72686;Laerm;61365;52.162;4.500;2023-08-01T12:53:21;41.15;31.35;51.59;;
72686;Laerm;61365;52.162;4.500;2023-08-01T12:55:49;41.01;31.33;51.44;;
72686;Laerm;61365;52.162;4.500;2023-08-01T12:58:16;40.83;31.40;51.23;;
72686;Laerm;61365;52.162;4.500;2023-08-01T13:00:43;40.82;31.60;50.19;;
72686;Laerm;61365;52.162;4.500;2023-08-01T13:03:10;40.80;31.80;50.30;;
72686;Laerm;61365;52.162;4.500;2023-08-01T13:05:39;40.84;31.49;50.08;;
72686;Laerm;61365;52.162;4.500;2023-08-01T13:08:05;40.96;31.43;50.89;;
72686;Laerm;61365;52.162;4.500;2023-08-01T13:10:33;41.02;31.44;50.36;;
72686;Laerm;61365;52.162;4.500;2023-08-01T13:12:59;40.85;31.81;49.68;;
72686;Laerm;61365;52.162;4.500;2023-08-01T13:15:26;40.94;31.70;51.31;;
72686;Laerm;61365;52.162;4.500;2023-08-01T13:17:53;41.05;31.36;52.11;;
72686;Laerm;61365;52.162;4.500;2023-08-01T13:20:19;40.91;31.52;49.35;;
72686;Laerm;61365;52.162;4.500;2023-08-01T13:22:48;41.04;30.62;50.96;;
72686;Laerm;61365;52.162;4.500;2023-08-01T13:25:14;41.01;31.64;51.95;;
72686;Laerm;61365;52.162;4.500;2023-08-01T13:27:41;41.01;31.32;55.58;;
72686;Laerm;61365;52.162;4.500;2023-08-01T13:30:08;41.01;31.29;50.64;;
72686;Laerm;61365;52.162;4.500;2023-08-01T13:32:35;41.10;31.34;53.59;;
72686;Laerm;61365;52.162;4.500;2023-08-01T13:35:01;41.07;31.54;51.97;;
72686;Laerm;61365;52.162;4.500;2023-08-01T13:37:28;41.06;31.42;50.33;;
72686;Laerm;61365;52.162;4.500;2023-08-01T13:39:57;40.82;31.65;51.52;;
72686;Laerm;61365;52.162;4.500;2023-08-01T13:42:24;40.84;31.56;50.19;;